Time;durP1;ratioP1;P1;durP2;ratioP2;P2;SDS_P1;SDS_P2;PMS_P1;PMS_P2;Temp;Humidity;BMP_temperature;BMP_pressure;BME280_temperature;BME280_humidity;BME280_pressure;Samples;Min_cycle;Max_cycle;Signal;HPM_P1;HPM_P2
2022/08/02 00:00:16;;;;;;;7.22;6.53;;;;;;;24.05;66.98;99220.77;1623165;87;21544;-60
2022/08/02 00:02:44;;;;;;;8.95;5.78;;;;;;;24.07;66.67;99219.62;1645069;85;21918;-61
2022/08/02 00:05:11;;;;;;;8.38;6.60;;;;;;;24.08;66.74;99219.11;1640598;86;23174;-61
2022/08/02 00:07:37;;;;;;;14.07;6.37;;;;;;;24.07;66.75;99212.91;1637953;85;21518;-61
2022/08/02 00:10:05;;;;;;;6.28;5.70;;;;;;;24.00;66.82;99217.23;1628759;86;21912;-62
2022/08/02 00:12:32;;;;;;;7.53;6.25;;;;;;;24.02;66.97;99223.28;1631994;86;21079;-62
2022/08/02 00:15:00;;;;;;;6.58;5.97;;;;;;;24.16;66.55;99210.23;1636669;85;22162;-60
2022/08/02 00:17:26;;;;;;;10.63;5.12;;;;;;;24.16;66.55;99210.23;1631866;86;21541;-61
2022/08/02 00:19:53;;;;;;;6.37;5.78;;;;;;;24.15;66.51;99209.40;1631555;86;21589;-61
2022/08/02 00:22:19;;;;;;;6.17;5.58;;;;;;;24.08;66.85;99208.36;1645227;86;21447;-62
2022/08/02 00:24:46;;;;;;;9.75;5.50;;;;;;;23.91;67.41;99210.16;1629967;86;21113;-61
2022/08/02 00:27:13;;;;;;;8.03;5.75;;;;;;;23.90;67.43;99208.45;1626068;86;21807;-61
2022/08/02 00:29:39;;;;;;;6.50;5.70;;;;;;;23.92;67.14;99205.10;1630637;86;21541;-61
2022/08/02 00:32:06;;;;;;;7.10;6.53;;;;;;;23.89;67.65;99210.31;1629844;86;21460;-61
2022/08/02 00:34:32;;;;;;;6.50;5.85;;;;;;;23.95;67.37;99210.16;1636544;86;21470;-61
2022/08/02 00:36:59;;;;;;;7.50;5.90;;;;;;;23.95;67.37;99210.16;1628703;86;21474;-61
2022/08/02 00:39:26;;;;;;;8.30;7.08;;;;;;;23.96;67.50;99213.68;1626407;86;21816;-61
2022/08/02 00:41:53;;;;;;;7.35;6.60;;;;;;;23.92;67.64;99215.01;1634758;86;21473;-61
2022/08/02 00:44:20;;;;;;;10.90;6.87;;;;;;;23.92;67.78;99216.35;1631450;86;21543;-61
2022/08/02 00:46:47;;;;;;;7.95;6.85;;;;;;;23.95;67.74;99216.87;1631230;85;28532;-61
2022/08/02 00:49:14;;;;;;;7.62;6.58;;;;;;;23.86;68.17;99220.02;1632025;85;21521;-61
2022/08/02 00:51:40;;;;;;;7.30;6.57;;;;;;;23.86;68.17;99220.02;1629334;86;21835;-61
2022/08/02 00:54:07;;;;;;;7.15;6.55;;;;;;;23.71;68.75;99217.09;1632099;86;21591;-62
2022/08/02 00:56:34;;;;;;;10.13;6.58;;;;;;;23.71;68.75;99217.09;1629798;86;21498;-61
2022/08/02 00:59:03;;;;;;;8.00;7.25;;;;;;;23.72;69.20;99223.30;1627952;86;21455;-61
2022/08/02 01:01:39;;;;;;;8.08;6.47;;;;;;;23.67;69.33;99222.92;1630386;86;21565;-61
2022/08/02 01:04:11;;;;;;;7.20;6.50;;;;;;;23.64;69.65;99230.80;1630041;86;21863;-61
2022/08/02 01:06:41;;;;;;;9.15;6.75;;;;;;;23.65;69.12;99227.10;1636691;85;21462;-62
2022/08/02 01:09:07;;;;;;;8.10;6.83;;;;;;;23.74;69.38;99226.66;1648924;85;21573;-62
2022/08/02 01:11:35;;;;;;;6.33;5.83;;;;;;;23.82;69.08;99214.63;1658537;85;21438;-61
2022/08/02 01:14:08;;;;;;;7.25;6.45;;;;;;;23.79;68.85;99211.43;1645664;85;21562;-63
2022/08/02 01:16:44;;;;;;;7.15;6.53;;;;;;;23.79;68.75;99210.09;1638448;85;21540;-59
2022/08/02 01:19:43;;;;;;;7.78;6.97;;;;;;;23.75;68.97;99214.90;1644184;85;21103;-59
2022/08/02 01:22:38;;;;;;;7.40;6.75;;;;;;;23.75;68.97;99214.90;1595232;86;21517;-59
2022/08/02 01:25:53;;;;;;;7.30;6.60;;;;;;;23.71;68.84;99224.28;1612049;87;21542;-59
2022/08/02 01:28:34;;;;;;;10.40;7.53;;;;;;;23.68;68.97;99222.77;1642642;85;21484;-59
2022/08/02 01:31:09;;;;;;;8.30;6.62;;;;;;;23.25;70.04;99235.25;1629988;87;21886;-59
2022/08/02 01:33:41;;;;;;;8.20;6.55;;;;;;;23.01;71.36;99238.55;1614006;86;21460;-59
2022/08/02 01:36:09;;;;;;;7.55;6.67;;;;;;;22.92;71.80;99236.80;1626185;86;21621;-59
2022/08/02 01:38:39;;;;;;;7.78;6.37;;;;;;;22.63;74.19;99248.61;1636217;86;21505;-59
2022/08/02 01:41:08;;;;;;;7.50;6.58;;;;;;;22.63;74.19;99248.61;1608257;87;21430;-59
2022/08/02 01:43:35;;;;;;;9.15;6.22;;;;;;;22.82;73.16;99231.53;1623318;86;21782;-59
2022/08/02 01:46:01;;;;;;;6.90;6.25;;;;;;;22.78;73.24;99226.65;1621925;86;21711;-59
2022/08/02 01:48:28;;;;;;;9.68;7.25;;;;;;;22.73;73.31;99223.07;1637110;86;21526;-59
2022/08/02 01:50:55;;;;;;;7.95;7.25;;;;;;;22.66;73.54;99219.32;1616586;87;21530;-59
2022/08/02 01:53:24;;;;;;;7.37;6.78;;;;;;;22.66;73.54;99219.32;1620955;86;21490;-59
2022/08/02 01:55:50;;;;;;;7.20;6.42;;;;;;;22.64;73.92;99219.97;1614964;87;21823;-59
2022/08/02 01:58:18;;;;;;;7.35;6.67;;;;;;;22.64;73.92;99219.97;1638247;86;21600;-59
2022/08/02 02:00:45;;;;;;;8.00;7.20;;;;;;;22.70;73.69;99215.36;1627730;86;21021;-59
2022/08/02 02:03:20;;;;;;;7.55;6.87;;;;;;;22.78;73.25;99211.41;1653478;84;21034;-59
2022/08/02 02:05:48;;;;;;;8.48;7.67;;;;;;;22.67;73.23;99207.62;1629138;87;21557;-60
2022/08/02 02:08:16;;;;;;;8.28;6.65;;;;;;;22.67;73.23;99207.62;1640396;86;22127;-60
2022/08/02 02:10:43;;;;;;;8.85;7.85;;;;;;;22.63;73.30;99203.06;1626732;86;21613;-60
2022/08/02 02:13:13;;;;;;;8.30;7.53;;;;;;;22.62;73.46;99208.09;1566704;87;21453;-60
2022/08/02 02:15:43;;;;;;;8.78;7.90;;;;;;;22.70;73.11;99201.97;1589200;89;21464;-59
2022/08/02 02:18:12;;;;;;;10.20;7.33;;;;;;;22.69;73.17;99204.28;1618062;87;21443;-60
2022/08/02 02:20:38;;;;;;;8.28;7.47;;;;;;;22.68;73.47;99203.95;1599256;88;21778;-59
2022/08/02 02:23:06;;;;;;;8.83;8.10;;;;;;;22.68;73.47;99203.95;1616446;87;21583;-59
2022/08/02 02:25:32;;;;;;;10.20;7.95;;;;;;;22.71;73.51;99200.95;1585284;89;21047;-59
2022/08/02 02:28:10;;;;;;;10.38;7.55;;;;;;;22.70;72.81;99199.28;1615381;87;21565;-59
2022/08/02 02:30:39;;;;;;;9.38;8.40;;;;;;;22.70;72.81;99199.28;1604093;87;21673;-60
2022/08/02 02:33:05;;;;;;;9.58;7.62;;;;;;;22.71;73.13;99195.09;1616442;87;21874;-60
2022/08/02 02:35:35;;;;;;;9.33;8.18;;;;;;;22.76;73.13;99197.32;1617310;87;21506;-60
2022/08/02 02:38:04;;;;;;;10.70;8.08;;;;;;;22.81;73.22;99195.50;1610297;87;21498;-60
2022/08/02 02:40:31;;;;;;;8.90;8.18;;;;;;;22.81;73.22;99195.50;1607284;87;21508;-60
2022/08/02 02:42:59;;;;;;;9.03;7.85;;;;;;;22.87;72.93;99198.92;1621652;87;21566;-60
2022/08/02 02:45:26;;;;;;;8.20;7.50;;;;;;;22.99;72.58;99196.83;1619333;87;22110;-60
2022/08/02 02:47:53;;;;;;;12.05;8.55;;;;;;;22.87;72.43;99189.03;1622748;87;21446;-60
2022/08/02 02:50:20;;;;;;;13.20;8.07;;;;;;;22.89;72.42;99192.40;1583877;88;21506;-60
2022/08/02 02:52:47;;;;;;;9.88;8.40;;;;;;;23.26;70.94;99181.97;1615012;87;21586;-60
2022/08/02 02:55:14;;;;;;;8.93;8.10;;;;;;;23.37;70.32;99181.34;1604643;88;21481;-60
2022/08/02 02:57:41;;;;;;;13.03;8.65;;;;;;;22.87;71.79;99190.38;1597194;88;21946;-60
2022/08/02 03:00:12;;;;;;;9.08;8.03;;;;;;;22.87;71.79;99190.38;1596067;88;21601;-60
2022/08/02 03:02:41;;;;;;;10.50;9.28;;;;;;;22.90;72.23;99193.23;1589089;89;21090;-58
2022/08/02 03:05:10;;;;;;;10.15;8.90;;;;;;;22.88;72.41;99196.57;1616397;87;21609;-59
2022/08/02 03:07:36;;;;;;;10.10;9.05;;;;;;;22.89;72.72;99196.42;1583184;88;21554;-59
2022/08/02 03:10:05;;;;;;;13.78;9.15;;;;;;;22.91;72.33;99204.31;1650290;85;21454;-60
2022/08/02 03:12:33;;;;;;;14.03;9.10;;;;;;;22.86;72.06;99203.92;1623567;86;21444;-59
2022/08/02 03:15:07;;;;;;;10.32;8.80;;;;;;;22.89;72.47;99200.95;1625095;86;21437;-60
2022/08/02 03:17:42;;;;;;;12.60;9.68;;;;;;;22.86;72.50;99201.25;1615898;87;21582;-60
2022/08/02 03:20:15;;;;;;;11.05;9.80;;;;;;;22.86;72.50;99201.25;1615555;87;21639;-58
2022/08/02 03:22:42;;;;;;;11.53;9.23;;;;;;;22.95;72.27;99207.02;1628637;87;22023;-59
2022/08/02 03:25:10;;;;;;;15.40;9.08;;;;;;;22.91;72.52;99207.83;1624029;86;21555;-60
2022/08/02 03:27:36;;;;;;;12.20;8.83;;;;;;;22.93;72.44;99213.03;1659704;85;21514;-60
2022/08/02 03:30:05;;;;;;;10.68;9.38;;;;;;;22.99;72.32;99207.55;1649095;85;21478;-60
2022/08/02 03:32:34;;;;;;;12.15;8.40;;;;;;;23.03;71.85;99208.91;1644403;85;21457;-60
2022/08/02 03:35:01;;;;;;;10.38;9.15;;;;;;;23.03;71.85;99208.91;1623629;87;21809;-59
2022/08/02 03:37:28;;;;;;;;;;;;;;;23.01;72.17;99209.58;1623841;87;21515;-60
2022/08/02 03:39:56;;;;;;;12.05;9.33;;;;;;;23.05;72.46;99206.95;1611895;86;20140;-59
2022/08/02 03:42:22;;;;;;;9.40;8.50;;;;;;;23.00;72.12;99196.67;1650976;85;22149;-60
2022/08/02 03:44:49;;;;;;;10.28;8.60;;;;;;;23.03;72.10;99193.70;1618371;87;21488;-60
2022/08/02 03:47:17;;;;;;;10.03;8.73;;;;;;;23.01;72.14;99189.47;1625767;87;21821;-60
2022/08/02 03:49:43;;;;;;;9.95;8.95;;;;;;;23.00;72.69;99196.67;1623139;87;27129;-60
2022/08/02 03:52:10;;;;;;;13.25;9.08;;;;;;;23.00;72.54;99193.13;1626452;86;21542;-60
2022/08/02 03:54:36;;;;;;;9.75;8.73;;;;;;;23.06;72.17;99189.38;1617751;87;21052;-59
2022/08/02 03:57:08;;;;;;;12.10;8.68;;;;;;;23.16;71.96;99184.41;1623904;87;21466;-60
2022/08/02 03:59:45;;;;;;;15.40;8.60;;;;;;;23.09;72.11;99183.70;1623017;86;21876;-60
2022/08/02 04:02:12;;;;;;;9.20;8.28;;;;;;;23.16;71.90;99183.06;1619662;87;21573;-59
2022/08/02 04:04:39;;;;;;;11.23;8.13;;;;;;;23.26;71.41;99180.63;1626072;86;21474;-60
2022/08/02 04:07:06;;;;;;;9.13;8.20;;;;;;;23.20;71.78;99185.77;1623376;87;21530;-60
2022/08/02 04:09:33;;;;;;;12.05;8.20;;;;;;;23.20;71.88;99188.45;1633902;85;21502;-60
2022/08/02 04:12:00;;;;;;;12.77;8.80;;;;;;;23.23;71.69;99188.98;1632008;86;21804;-60
2022/08/02 04:14:27;;;;;;;10.80;8.75;;;;;;;23.26;71.73;99188.67;1646022;85;21518;-60
2022/08/02 04:17:04;;;;;;;11.33;8.70;;;;;;;23.30;71.87;99190.52;1650238;86;21620;-60
2022/08/02 04:19:41;;;;;;;9.17;8.27;;;;;;;23.27;71.97;99186.32;1613888;87;21493;-60
2022/08/02 04:22:19;;;;;;;13.18;8.63;;;;;;;23.26;71.97;99191.84;1625442;86;21497;-60
2022/08/02 04:24:49;;;;;;;11.00;8.53;;;;;;;23.27;71.86;99184.98;1628252;86;21770;-60
2022/08/02 04:27:15;;;;;;;8.65;7.83;;;;;;;23.20;72.46;99194.65;1622070;86;21533;-61
2022/08/02 04:29:42;;;;;;;9.08;8.23;;;;;;;23.20;72.46;99194.65;1627504;86;21436;-60
2022/08/02 04:32:08;;;;;;;9.30;8.20;;;;;;;23.23;72.94;99193.52;1611377;87;21523;-61
2022/08/02 04:34:35;;;;;;;13.28;8.40;;;;;;;23.22;73.10;99195.33;1638347;86;21001;-60
2022/08/02 04:37:01;;;;;;;11.20;7.55;;;;;;;23.24;73.33;99189.30;1633535;85;21959;-60
2022/08/02 04:39:28;;;;;;;8.70;7.87;;;;;;;23.29;73.30;99195.05;1641346;86;21491;-60
2022/08/02 04:41:55;;;;;;;9.83;8.70;;;;;;;23.29;73.30;99195.05;1636517;86;22232;-60
2022/08/02 04:44:22;;;;;;;9.43;7.47;;;;;;;23.33;73.45;99201.77;1641207;85;21540;-61
2022/08/02 04:46:48;;;;;;;9.30;7.55;;;;;;;23.43;73.34;99202.16;1641590;85;21563;-59
2022/08/02 04:49:15;;;;;;;9.73;7.72;;;;;;;23.45;73.49;99211.75;1637338;86;21893;-60
2022/08/02 04:51:42;;;;;;;9.20;7.97;;;;;;;23.43;73.28;99216.44;1636432;86;21494;-60
2022/08/02 04:55:46;;;;;;;9.38;7.15;;;;;;;22.71;77.56;99242.48;1775708;79;23281;-58
2022/08/02 04:58:13;;;;;;;12.13;8.70;;;;;;;23.27;75.50;99237.78;1732575;80;21460;-59
2022/08/02 05:00:40;;;;;;;10.93;7.13;;;;;;;23.40;74.41;99234.69;1741697;80;21847;-58
2022/08/02 05:03:07;;;;;;;8.65;7.75;;;;;;;23.48;74.08;99230.70;1706590;83;21428;-58
2022/08/02 05:05:33;;;;;;;9.28;6.83;;;;;;;23.78;73.20;99229.86;1719257;81;22058;-59
2022/08/02 05:08:00;;;;;;;9.73;6.45;;;;;;;23.80;72.67;99230.06;1698710;82;21510;-59
2022/08/02 05:10:27;;;;;;;10.60;7.73;;;;;;;23.81;72.57;99227.73;1694898;81;21584;-59
2022/08/02 05:12:54;;;;;;;8.10;6.97;;;;;;;23.83;72.60;99236.46;1709632;81;21430;-61
2022/08/02 05:15:20;;;;;;;8.25;5.78;;;;;;;23.95;72.21;99226.27;1690666;83;21436;-58
2022/08/02 05:17:47;;;;;;;8.70;5.47;;;;;;;24.05;70.97;99220.28;1712678;81;21600;-58
2022/08/02 05:20:17;;;;;;;5.87;4.92;;;;;;;23.86;70.95;99226.73;1685899;83;20970;-59
2022/08/02 05:22:44;;;;;;;7.37;4.80;;;;;;;23.77;70.68;99227.69;1698849;83;21534;-59
2022/08/02 05:25:11;;;;;;;12.55;4.65;;;;;;;23.73;69.32;99225.47;1690311;83;21837;-60
2022/08/02 05:27:37;;;;;;;7.85;4.30;;;;;;;23.73;69.32;99225.47;1707840;82;21422;-60
2022/08/02 05:30:05;;;;;;;6.47;4.67;;;;;;;23.97;68.27;99217.55;1697058;83;20955;-62
2022/08/02 05:32:32;;;;;;;7.35;4.62;;;;;;;23.78;67.70;99197.66;1687397;83;21493;-62
2022/08/02 05:35:00;;;;;;;8.40;4.87;;;;;;;23.76;67.52;99218.45;1690922;83;21536;-61
2022/08/02 05:37:28;;;;;;;6.15;4.15;;;;;;;23.50;68.30;99226.02;1689924;83;21968;-61
2022/08/02 05:39:55;;;;;;;7.60;4.58;;;;;;;23.30;68.57;99228.06;1692455;83;21462;-60
2022/08/02 05:42:22;;;;;;;5.90;4.58;;;;;;;23.34;68.24;99229.45;1696938;83;21519;-62
2022/08/02 05:44:48;;;;;;;7.03;4.05;;;;;;;23.30;68.45;99236.97;1691891;83;21566;-63
2022/08/02 05:47:15;;;;;;;6.08;4.62;;;;;;;23.49;67.92;99238.59;1693778;83;21478;-60
2022/08/02 05:49:41;;;;;;;9.98;4.65;;;;;;;23.62;67.51;99242.20;1688280;83;21956;-60
2022/08/02 05:52:16;;;;;;;7.15;4.83;;;;;;;23.48;67.70;99244.12;1696063;83;21544;-60
2022/08/02 05:55:06;;;;;;;9.55;4.85;;;;;;;23.42;68.11;99251.47;1687178;83;21008;-59
2022/08/02 05:58:08;;;;;;;6.60;4.50;;;;;;;23.36;68.57;99256.09;1673513;83;20998;-59
2022/08/02 06:00:35;;;;;;;11.33;4.47;;;;;;;23.61;67.82;99255.27;1667586;83;20954;-58
2022/08/02 06:03:16;;;;;;;10.18;5.30;;;;;;;23.51;67.97;99249.17;1697972;82;21825;-58
2022/08/02 06:06:05;;;;;;;8.65;4.58;;;;;;;23.54;67.62;99250.18;1687521;82;21578;-59
2022/08/02 06:08:36;;;;;;;7.47;4.85;;;;;;;23.65;67.22;99253.94;1666868;83;21614;-59
2022/08/02 06:11:03;;;;;;;7.33;4.80;;;;;;;23.60;67.34;99246.89;1714684;81;21423;-59
2022/08/02 06:13:30;;;;;;;12.90;4.72;;;;;;;23.58;67.34;99250.20;1720752;81;21435;-59
2022/08/02 06:15:58;;;;;;;8.83;4.97;;;;;;;23.52;67.69;99247.66;1726987;80;22203;-58
2022/08/02 06:18:28;;;;;;;9.28;5.30;;;;;;;23.48;68.26;99256.19;1727660;80;21635;-58
2022/08/02 06:21:01;;;;;;;5.87;5.12;;;;;;;23.52;68.19;99249.00;1733828;79;21570;-59
2022/08/02 06:23:28;;;;;;;11.12;5.33;;;;;;;23.48;68.55;99253.51;1730558;80;21504;-60
2022/08/02 06:25:58;;;;;;;10.23;5.93;;;;;;;23.42;69.05;99256.83;1741925;80;21574;-59
2022/08/02 06:28:25;;;;;;;10.50;5.58;;;;;;;23.20;69.66;99254.98;1728283;80;21902;-56
2022/08/02 06:30:52;;;;;;;7.70;5.33;;;;;;;;;;1736331;80;22483;-57
2022/08/02 06:33:18;;;;;;;8.28;4.92;;;;;;;23.03;71.08;99258.03;1729455;81;21601;-58
2022/08/02 06:36:03;;;;;;;8.10;5.20;;;;;;;23.32;70.31;99254.25;1728518;80;21495;-58
2022/08/02 06:38:40;;;;;;;10.63;5.00;;;;;;;23.46;69.86;99251.48;1730539;81;21434;-60
2022/08/02 06:41:10;;;;;;;10.78;5.53;;;;;;;23.05;71.43;99253.87;1719262;80;21473;-59
2022/08/02 06:43:55;;;;;;;6.12;4.90;;;;;;;22.78;72.30;99258.30;1719701;80;21562;-58
2022/08/02 06:46:22;;;;;;;8.23;4.25;;;;;;;22.78;72.30;99258.30;1730285;81;21503;-59
2022/08/02 06:48:49;;;;;;;5.22;4.33;;;;;;;22.76;72.90;99260.80;1732323;80;21578;-60
2022/08/02 06:51:16;;;;;;;6.60;4.22;;;;;;;22.79;73.16;99261.81;1732567;80;21552;-59
2022/08/02 06:53:43;;;;;;;7.42;4.30;;;;;;;22.90;72.57;99258.91;1676880;83;21796;-60
2022/08/02 06:56:10;;;;;;;4.70;4.30;;;;;;;22.90;72.35;99260.23;1720538;81;21503;-60
2022/08/02 06:58:37;;;;;;;8.57;4.93;;;;;;;22.98;72.32;99256.31;1732007;81;21585;-59
2022/08/02 07:01:06;;;;;;;4.80;4.30;;;;;;;23.00;72.32;99251.63;1725919;81;21475;-59
2022/08/02 07:03:33;;;;;;;5.83;4.62;;;;;;;23.00;72.32;99251.63;1729936;80;21483;-59
2022/08/02 07:06:00;;;;;;;6.12;5.10;;;;;;;22.97;72.20;99248.41;1728382;80;21771;-60
2022/08/02 07:08:31;;;;;;;7.15;4.10;;;;;;;22.91;72.19;99252.05;1746840;80;21662;-58
2022/08/02 07:10:57;;;;;;;5.37;4.85;;;;;;;22.88;71.37;99252.85;1732597;80;20944;-59
2022/08/02 07:13:23;;;;;;;;;;;;;;;22.86;71.88;99253.00;1739950;80;21431;-59
2022/08/02 07:15:50;;;;;;;6.60;4.83;;;;;;;22.89;72.23;99254.05;1731915;80;20434;-59
2022/08/02 07:18:17;;;;;;;6.97;4.92;;;;;;;22.89;72.23;99254.05;1728714;80;21859;-59
2022/08/02 07:20:43;;;;;;;11.03;4.67;;;;;;;22.83;72.18;99256.02;1729979;80;21495;-59
2022/08/02 07:23:10;;;;;;;5.78;4.85;;;;;;;22.88;72.15;99257.70;1707511;82;21822;-59
2022/08/02 07:25:36;;;;;;;7.00;4.92;;;;;;;22.92;72.17;99252.41;1702494;82;21468;-59
2022/08/02 07:28:04;;;;;;;5.90;5.08;;;;;;;22.88;72.20;99256.37;1725048;81;21511;-59
2022/08/02 07:30:31;;;;;;;5.17;4.70;;;;;;;22.73;72.31;99257.91;1725724;81;21855;-58
2022/08/02 07:32:58;;;;;;;;;;;;;;;22.77;72.22;99255.77;1735066;80;21574;-58
2022/08/02 07:35:25;;;;;;;8.00;5.28;;;;;;;22.79;72.16;99258.62;1728931;81;20497;-59
2022/08/02 07:37:52;;;;;;;7.20;5.55;;;;;;;22.62;72.45;99262.16;1741412;80;21507;-59
2022/08/02 07:40:19;;;;;;;9.38;5.70;;;;;;;22.68;72.00;99267.76;1728756;80;21574;-59
2022/08/02 07:43:04;;;;;;;7.62;5.58;;;;;;;22.59;72.43;99269.17;1723348;80;21519;-61
2022/08/02 07:45:32;;;;;;;7.37;4.95;;;;;;;22.58;72.72;99272.83;1738919;80;21616;-60
2022/08/02 07:47:58;;;;;;;6.62;5.08;;;;;;;22.63;72.42;99276.74;1727842;80;21626;-60
2022/08/02 07:50:27;;;;;;;6.47;4.95;;;;;;;22.53;72.90;99276.81;1694257;82;21590;-58
2022/08/02 07:52:53;;;;;;;7.95;4.72;;;;;;;22.62;72.68;99279.56;1690997;84;21443;-59
2022/08/02 07:55:20;;;;;;;8.10;5.28;;;;;;;22.53;73.21;99286.70;1684573;82;21843;-59
2022/08/02 07:57:47;;;;;;;5.12;4.55;;;;;;;22.55;73.40;99291.41;1678157;83;21466;-59
2022/08/02 08:00:16;;;;;;;5.92;5.20;;;;;;;22.57;73.56;99286.73;1739165;80;21562;-59
2022/08/02 08:02:43;;;;;;;6.90;4.70;;;;;;;22.65;73.51;99294.02;1734616;80;21472;-60
2022/08/02 08:05:10;;;;;;;11.48;6.20;;;;;;;22.75;73.27;99292.09;1691293;82;20930;-59
2022/08/02 08:07:37;;;;;;;6.92;4.50;;;;;;;22.86;73.33;99294.55;1693114;82;21853;-59
2022/08/02 08:10:06;;;;;;;7.77;6.07;;;;;;;23.02;72.77;99288.98;1701556;83;21586;-60
2022/08/02 08:12:33;;;;;;;10.65;6.58;;;;;;;22.96;72.79;99287.76;1687773;83;21658;-59
2022/08/02 08:15:00;;;;;;;10.85;6.78;;;;;;;22.96;72.53;99284.25;1690491;82;21610;-59
2022/08/02 08:17:27;;;;;;;7.25;6.30;;;;;;;23.06;72.19;99286.39;1697037;82;21517;-59
2022/08/02 08:19:53;;;;;;;6.28;5.78;;;;;;;22.91;72.56;99285.55;1698048;82;22113;-59
2022/08/02 08:22:20;;;;;;;5.50;4.97;;;;;;;22.94;72.38;99291.96;1690434;82;21537;-60
2022/08/02 08:24:47;;;;;;;5.70;5.20;;;;;;;22.99;72.54;99298.19;1691884;82;21464;-60
2022/08/02 08:27:14;;;;;;;8.57;5.10;;;;;;;23.18;72.66;99305.76;1692302;82;21462;-60
2022/08/02 08:30:03;;;;;;;8.68;4.58;;;;;;;23.32;71.58;99293.98;1695444;82;21074;-60
2022/08/02 08:32:30;;;;;;;9.73;5.30;;;;;;;23.32;72.15;99294.48;1668710;84;21447;-59
2022/08/02 08:34:56;;;;;;;8.15;4.90;;;;;;;23.37;73.16;99302.05;1664297;84;21577;-60
2022/08/02 08:37:23;;;;;;;7.10;5.37;;;;;;;23.37;73.16;99302.05;1660338;84;21647;-60
2022/08/02 08:39:50;;;;;;;6.95;5.75;;;;;;;23.52;72.97;99305.34;1685143;83;21001;-59
2022/08/02 08:42:16;;;;;;;11.63;5.25;;;;;;;23.82;72.13;99299.70;1685622;83;20956;-60
2022/08/02 08:44:43;;;;;;;7.90;5.65;;;;;;;24.16;70.72;99292.14;1681223;83;21806;-60
2022/08/02 08:47:10;;;;;;;8.38;5.67;;;;;;;24.29;69.74;99289.84;1667074;84;21571;-59
2022/08/02 08:49:41;;;;;;;6.55;5.95;;;;;;;24.29;69.66;99286.64;1662793;85;21568;-60
2022/08/02 08:52:07;;;;;;;11.97;6.10;;;;;;;24.30;70.13;99295.56;1644118;84;21115;-60
2022/08/02 08:54:34;;;;;;;9.90;6.90;;;;;;;24.36;70.14;99290.88;1641702;85;21024;-60
2022/08/02 08:57:04;;;;;;;7.35;6.53;;;;;;;24.36;70.11;99292.22;1655997;83;21952;-60
2022/08/02 08:59:32;;;;;;;15.08;6.70;;;;;;;24.51;69.57;99288.91;1650862;84;21054;-61
2022/08/02 09:01:59;;;;;;;10.10;7.33;;;;;;;24.46;69.18;99290.22;1651505;84;21094;-60
2022/08/02 09:04:25;;;;;;;7.22;6.55;;;;;;;24.33;69.83;99295.73;1655252;83;21559;-60
2022/08/02 09:06:54;;;;;;;7.35;6.65;;;;;;;24.19;70.27;99291.83;1656485;83;21599;-60
2022/08/02 09:09:21;;;;;;;10.28;7.12;;;;;;;24.08;71.20;99295.13;1655873;84;21587;-60
2022/08/02 09:11:47;;;;;;;12.43;7.62;;;;;;;24.22;71.02;99300.41;1659789;84;21460;-61
2022/08/02 09:14:28;;;;;;;10.30;8.25;;;;;;;24.30;70.74;99290.20;1657917;84;21661;-60
2022/08/02 09:17:08;;;;;;;9.08;8.03;;;;;;;24.32;70.95;99296.72;1661288;84;21014;-59
2022/08/02 09:19:35;;;;;;;8.93;7.78;;;;;;;24.19;71.58;99306.60;1658536;84;21514;-58
2022/08/02 09:22:08;;;;;;;10.68;9.10;;;;;;;24.29;71.45;99306.79;1666431;84;21948;-59
2022/08/02 09:24:47;;;;;;;9.58;8.63;;;;;;;24.34;71.51;99309.52;1660049;84;21610;-59
2022/08/02 09:27:17;;;;;;;17.77;9.55;;;;;;;24.28;71.72;99323.92;1652777;84;21595;-59
2022/08/02 09:29:46;;;;;;;10.05;8.88;;;;;;;24.25;71.68;99319.38;1654224;84;21599;-59
2022/08/02 09:32:14;;;;;;;8.98;8.10;;;;;;;24.19;71.79;99322.20;1658683;84;21591;-60
2022/08/02 09:34:52;;;;;;;10.55;9.03;;;;;;;24.24;71.85;99323.05;1663991;84;22108;-59
2022/08/02 09:37:24;;;;;;;10.85;9.38;;;;;;;24.34;71.70;99314.37;1657282;84;21556;-59
2022/08/02 09:39:51;;;;;;;14.10;9.28;;;;;;;24.34;71.79;99318.41;1656834;84;21572;-61
2022/08/02 09:42:18;;;;;;;10.53;9.43;;;;;;;24.33;71.60;99321.25;1664116;84;21584;-59
2022/08/02 09:45:01;;;;;;;12.13;9.55;;;;;;;24.24;71.73;99321.23;1659599;84;21559;-59
2022/08/02 09:47:29;;;;;;;10.78;9.65;;;;;;;24.24;72.19;99321.23;1656956;84;21888;-59
2022/08/02 09:49:57;;;;;;;14.73;9.88;;;;;;;24.14;71.96;99326.38;1664844;84;21508;-59
2022/08/02 09:52:28;;;;;;;10.23;9.20;;;;;;;24.06;72.44;99323.16;1654809;84;21611;-59
2022/08/02 09:54:55;;;;;;;11.68;9.80;;;;;;;24.04;72.32;99326.00;1658838;84;21620;-59
2022/08/02 09:57:27;;;;;;;12.45;9.78;;;;;;;24.05;71.72;99325.01;1655680;84;21095;-59
2022/08/02 09:59:57;;;;;;;11.60;10.35;;;;;;;24.04;71.88;99335.90;1657645;84;21557;-59
2022/08/02 10:02:24;;;;;;;11.97;9.88;;;;;;;24.12;71.79;99340.47;1675755;84;21591;-59
2022/08/02 10:04:51;;;;;;;12.73;9.93;;;;;;;24.45;70.08;99334.23;1659357;84;21627;-59
2022/08/02 10:07:19;;;;;;;9.95;9.10;;;;;;;24.34;70.09;99326.98;1657732;84;21605;-59
2022/08/02 10:09:47;;;;;;;12.30;9.43;;;;;;;24.22;70.01;99331.78;1655552;84;21588;-59
2022/08/02 10:12:14;;;;;;;12.85;9.50;;;;;;;24.02;70.50;99328.52;1653669;84;21799;-59
2022/08/02 10:14:42;;;;;;;10.45;8.68;;;;;;;23.75;71.39;99330.81;1662449;84;21576;-59
2022/08/02 10:17:10;;;;;;;10.63;9.43;;;;;;;23.55;71.37;99328.34;1659477;84;21628;-59
2022/08/02 10:19:37;;;;;;;10.20;8.38;;;;;;;23.45;72.10;99311.02;1658190;84;21593;-59
2022/08/02 10:22:05;;;;;;;10.63;7.97;;;;;;;23.45;72.10;99311.02;1652309;84;21646;-60
2022/08/02 10:24:33;;;;;;;10.43;8.25;;;;;;;23.39;71.97;99307.59;1651971;84;21615;-63
2022/08/02 10:26:59;;;;;;;12.17;7.70;;;;;;;23.39;71.97;99307.59;1653601;84;21460;-59
2022/08/02 10:29:30;;;;;;;8.65;7.05;;;;;;;23.37;71.86;99309.59;1657414;84;21529;-60
2022/08/02 10:32:12;;;;;;;7.75;6.95;;;;;;;23.38;71.57;99304.58;1650906;84;21008;-59
2022/08/02 10:34:49;;;;;;;9.45;7.37;;;;;;;23.44;71.45;99308.48;1641947;84;21528;-58
2022/08/02 10:37:16;;;;;;;8.18;7.37;;;;;;;23.59;71.58;99315.47;1652206;84;21898;-62
2022/08/02 10:39:44;;;;;;;10.50;8.33;;;;;;;23.59;71.58;99315.47;1651893;85;21601;-59
2022/08/02 10:42:13;;;;;;;10.58;8.10;;;;;;;23.73;70.90;99312.69;1654152;85;21606;-60
2022/08/02 10:44:40;;;;;;;9.30;8.25;;;;;;;23.82;70.84;99306.41;1656011;84;21569;-59
2022/08/02 10:47:24;;;;;;;10.70;8.10;;;;;;;23.87;71.14;99309.47;1651046;84;21068;-60
2022/08/02 10:50:02;;;;;;;11.63;7.65;;;;;;;23.91;70.60;99309.48;1652352;85;21808;-60
2022/08/02 10:52:30;;;;;;;7.95;7.15;;;;;;;23.89;70.27;99310.98;1651425;84;21538;-58
2022/08/02 10:55:03;;;;;;;12.20;7.22;;;;;;;23.89;70.27;99310.98;1659184;84;21440;-59
2022/08/02 10:57:33;;;;;;;8.90;7.35;;;;;;;23.94;70.05;99303.80;1653149;83;21609;-60
2022/08/02 11:00:08;;;;;;;9.65;5.80;;;;;;;23.89;70.53;99302.09;1650690;84;21449;-58
2022/08/02 11:02:45;;;;;;;7.37;5.95;;;;;;;23.95;70.52;99308.16;1649802;85;22124;-60
2022/08/02 11:05:32;;;;;;;10.65;6.45;;;;;;;24.02;69.87;99308.37;1653953;85;21532;-60
2022/08/02 11:08:06;;;;;;;7.92;6.62;;;;;;;24.08;69.72;99309.89;1652552;82;21548;-58
2022/08/02 11:10:37;;;;;;;9.23;6.67;;;;;;;24.03;69.35;99314.06;1641065;84;21638;-59
2022/08/02 11:13:16;;;;;;;9.85;6.42;;;;;;;24.03;69.35;99314.06;1647289;85;21652;-59
2022/08/02 11:16:03;;;;;;;14.15;5.87;;;;;;;24.15;69.48;99318.64;1650193;84;21814;-58
2022/08/02 11:18:52;;;;;;;;;;;;;;;24.45;68.22;99311.91;1647987;85;21608;-60
2022/08/02 11:21:27;;;;;;;11.50;6.45;;;;;;;24.49;67.71;99306.54;1650777;83;20430;-59
2022/08/02 11:23:54;;;;;;;6.53;5.78;;;;;;;24.32;67.82;99311.50;1649465;85;21538;-59
2022/08/02 11:26:35;;;;;;;8.78;5.47;;;;;;;24.25;68.52;99323.41;1657301;84;21704;-59
2022/08/02 11:29:03;;;;;;;9.80;6.00;;;;;;;24.25;68.68;99322.89;1649766;84;21835;-58
2022/08/02 11:31:42;;;;;;;7.03;5.60;;;;;;;24.25;68.19;99316.69;1650457;84;21460;-59
2022/08/02 11:34:10;;;;;;;6.03;5.10;;;;;;;24.18;68.60;99326.39;1663872;84;21102;-59
2022/08/02 11:36:46;;;;;;;10.05;5.78;;;;;;;24.06;68.97;99325.33;1652259;84;21529;-59
2022/08/02 11:39:16;;;;;;;7.83;5.70;;;;;;;24.19;69.00;99336.14;1643927;84;21819;-59
2022/08/02 11:41:58;;;;;;;9.48;5.12;;;;;;;24.12;69.03;99331.91;1657814;84;21844;-60
2022/08/02 11:44:26;;;;;;;6.28;5.58;;;;;;;23.98;69.28;99333.35;1661255;84;21630;-59